sensor_id;sensor_type;location;lat;lon;timestamp;P1;durP1;ratioP1;P2;durP2;ratioP2
8803;SDS011;4438;50.890;4.726;2023-03-21T00:02:20;11.97;;;7.50;;
8803;SDS011;4438;50.890;4.726;2023-03-21T00:04:48;9.03;;;6.83;;
8803;SDS011;4438;50.890;4.726;2023-03-21T00:07:14;11.87;;;7.40;;
8803;SDS011;4438;50.890;4.726;2023-03-21T00:09:40;11.83;;;6.43;;
8803;SDS011;4438;50.890;4.726;2023-03-21T00:12:06;9.53;;;6.57;;
8803;SDS011;4438;50.890;4.726;2023-03-21T00:14:34;8.60;;;6.37;;
8803;SDS011;4438;50.890;4.726;2023-03-21T00:17:02;9.07;;;6.50;;
8803;SDS011;4438;50.890;4.726;2023-03-21T00:19:28;9.63;;;7.20;;
8803;SDS011;4438;50.890;4.726;2023-03-21T00:21:54;10.27;;;7.23;;
8803;SDS011;4438;50.890;4.726;2023-03-21T00:24:21;9.37;;;6.87;;
8803;SDS011;4438;50.890;4.726;2023-03-21T00:26:48;11.47;;;7.00;;
8803;SDS011;4438;50.890;4.726;2023-03-21T00:29:14;7.93;;;6.17;;
8803;SDS011;4438;50.890;4.726;2023-03-21T00:31:40;9.77;;;6.90;;
8803;SDS011;4438;50.890;4.726;2023-03-21T00:34:06;11.70;;;7.33;;
8803;SDS011;4438;50.890;4.726;2023-03-21T00:36:32;12.23;;;7.00;;
8803;SDS011;4438;50.890;4.726;2023-03-21T00:38:59;10.50;;;7.30;;
8803;SDS011;4438;50.890;4.726;2023-03-21T00:41:25;11.27;;;6.97;;
8803;SDS011;4438;50.890;4.726;2023-03-21T00:43:51;9.37;;;7.13;;
8803;SDS011;4438;50.890;4.726;2023-03-21T00:46:19;10.63;;;7.10;;
8803;SDS011;4438;50.890;4.726;2023-03-21T00:48:45;8.67;;;6.87;;
8803;SDS011;4438;50.890;4.726;2023-03-21T00:51:18;12.67;;;7.10;;
8803;SDS011;4438;50.890;4.726;2023-03-21T00:53:54;12.40;;;7.33;;
8803;SDS011;4438;50.890;4.726;2023-03-21T00:56:21;9.93;;;7.20;;
8803;SDS011;4438;50.890;4.726;2023-03-21T00:58:47;9.53;;;6.40;;
8803;SDS011;4438;50.890;4.726;2023-03-21T01:01:13;7.87;;;5.67;;
8803;SDS011;4438;50.890;4.726;2023-03-21T01:03:39;10.33;;;6.47;;
8803;SDS011;4438;50.890;4.726;2023-03-21T01:06:15;7.97;;;5.60;;
8803;SDS011;4438;50.890;4.726;2023-03-21T01:08:43;8.93;;;5.33;;
8803;SDS011;4438;50.890;4.726;2023-03-21T01:11:12;9.33;;;6.30;;
8803;SDS011;4438;50.890;4.726;2023-03-21T01:13:38;7.00;;;5.80;;
8803;SDS011;4438;50.890;4.726;2023-03-21T01:16:05;7.87;;;5.90;;
8803;SDS011;4438;50.890;4.726;2023-03-21T01:18:32;12.30;;;6.13;;
8803;SDS011;4438;50.890;4.726;2023-03-21T01:20:59;8.73;;;6.47;;
8803;SDS011;4438;50.890;4.726;2023-03-21T01:23:26;9.13;;;6.90;;
8803;SDS011;4438;50.890;4.726;2023-03-21T01:25:53;9.87;;;6.33;;
8803;SDS011;4438;50.890;4.726;2023-03-21T01:28:20;10.93;;;7.07;;
8803;SDS011;4438;50.890;4.726;2023-03-21T01:30:46;9.40;;;6.53;;
8803;SDS011;4438;50.890;4.726;2023-03-21T01:33:13;11.17;;;6.67;;
8803;SDS011;4438;50.890;4.726;2023-03-21T01:35:40;9.70;;;6.97;;
8803;SDS011;4438;50.890;4.726;2023-03-21T01:38:06;11.67;;;7.17;;
8803;SDS011;4438;50.890;4.726;2023-03-21T01:40:34;10.53;;;7.07;;
8803;SDS011;4438;50.890;4.726;2023-03-21T01:43:00;9.67;;;6.10;;
8803;SDS011;4438;50.890;4.726;2023-03-21T01:48:12;11.60;;;7.13;;
8803;SDS011;4438;50.890;4.726;2023-03-21T01:50:38;9.47;;;6.37;;
8803;SDS011;4438;50.890;4.726;2023-03-21T01:53:05;9.40;;;6.13;;
8803;SDS011;4438;50.890;4.726;2023-03-21T01:55:31;9.10;;;6.60;;
8803;SDS011;4438;50.890;4.726;2023-03-21T01:57:57;8.27;;;6.00;;
8803;SDS011;4438;50.890;4.726;2023-03-21T02:00:24;9.03;;;6.33;;
8803;SDS011;4438;50.890;4.726;2023-03-21T02:02:53;9.20;;;6.50;;
8803;SDS011;4438;50.890;4.726;2023-03-21T02:05:34;9.77;;;6.27;;
8803;SDS011;4438;50.890;4.726;2023-03-21T02:08:03;8.03;;;6.30;;
8803;SDS011;4438;50.890;4.726;2023-03-21T02:10:30;9.30;;;5.93;;
8803;SDS011;4438;50.890;4.726;2023-03-21T02:12:57;9.50;;;6.70;;
8803;SDS011;4438;50.890;4.726;2023-03-21T02:15:32;8.83;;;5.90;;
8803;SDS011;4438;50.890;4.726;2023-03-21T02:18:16;9.93;;;6.30;;
8803;SDS011;4438;50.890;4.726;2023-03-21T02:37:16;11.30;;;6.63;;
8803;SDS011;4438;50.890;4.726;2023-03-21T02:49:21;12.50;;;6.20;;
8803;SDS011;4438;50.890;4.726;2023-03-21T02:51:47;11.43;;;7.33;;
8803;SDS011;4438;50.890;4.726;2023-03-21T02:54:16;9.83;;;6.40;;
8803;SDS011;4438;50.890;4.726;2023-03-21T02:56:43;12.03;;;6.23;;
8803;SDS011;4438;50.890;4.726;2023-03-21T02:59:10;9.27;;;6.53;;
8803;SDS011;4438;50.890;4.726;2023-03-21T03:01:37;8.60;;;6.47;;
8803;SDS011;4438;50.890;4.726;2023-03-21T03:04:03;11.63;;;6.43;;
8803;SDS011;4438;50.890;4.726;2023-03-21T03:06:33;9.63;;;6.17;;
8803;SDS011;4438;50.890;4.726;2023-03-21T03:11:46;9.73;;;6.20;;
8803;SDS011;4438;50.890;4.726;2023-03-21T03:16:53;9.93;;;5.83;;
8803;SDS011;4438;50.890;4.726;2023-03-21T03:19:25;10.00;;;5.63;;
8803;SDS011;4438;50.890;4.726;2023-03-21T03:24:29;10.03;;;5.73;;
8803;SDS011;4438;50.890;4.726;2023-03-21T03:27:18;6.90;;;5.40;;
8803;SDS011;4438;50.890;4.726;2023-03-21T03:29:43;9.10;;;5.20;;
8803;SDS011;4438;50.890;4.726;2023-03-21T03:32:11;10.40;;;5.30;;
8803;SDS011;4438;50.890;4.726;2023-03-21T03:34:39;6.93;;;4.97;;
8803;SDS011;4438;50.890;4.726;2023-03-21T03:37:07;9.33;;;5.23;;
8803;SDS011;4438;50.890;4.726;2023-03-21T03:39:43;9.03;;;5.23;;
8803;SDS011;4438;50.890;4.726;2023-03-21T03:42:14;7.93;;;5.10;;
8803;SDS011;4438;50.890;4.726;2023-03-21T03:44:41;9.57;;;5.07;;
8803;SDS011;4438;50.890;4.726;2023-03-21T03:47:09;9.43;;;5.20;;
8803;SDS011;4438;50.890;4.726;2023-03-21T03:49:40;8.37;;;4.67;;
8803;SDS011;4438;50.890;4.726;2023-03-21T03:52:09;7.63;;;4.77;;
8803;SDS011;4438;50.890;4.726;2023-03-21T03:54:37;9.80;;;4.37;;
8803;SDS011;4438;50.890;4.726;2023-03-21T03:57:04;7.07;;;3.93;;
8803;SDS011;4438;50.890;4.726;2023-03-21T03:59:35;8.07;;;4.17;;
8803;SDS011;4438;50.890;4.726;2023-03-21T04:02:01;7.83;;;4.30;;
8803;SDS011;4438;50.890;4.726;2023-03-21T04:04:28;8.13;;;4.57;;
8803;SDS011;4438;50.890;4.726;2023-03-21T04:06:55;5.93;;;4.53;;
8803;SDS011;4438;50.890;4.726;2023-03-21T04:09:22;7.20;;;4.93;;
8803;SDS011;4438;50.890;4.726;2023-03-21T04:11:48;8.30;;;5.40;;
8803;SDS011;4438;50.890;4.726;2023-03-21T04:14:14;6.27;;;4.50;;
8803;SDS011;4438;50.890;4.726;2023-03-21T04:16:40;9.50;;;5.57;;
8803;SDS011;4438;50.890;4.726;2023-03-21T04:19:06;8.33;;;5.57;;
8803;SDS011;4438;50.890;4.726;2023-03-21T04:21:33;8.87;;;5.43;;
8803;SDS011;4438;50.890;4.726;2023-03-21T04:23:59;12.57;;;5.67;;
8803;SDS011;4438;50.890;4.726;2023-03-21T04:26:25;10.17;;;6.03;;
8803;SDS011;4438;50.890;4.726;2023-03-21T04:28:57;9.53;;;6.03;;
8803;SDS011;4438;50.890;4.726;2023-03-21T04:31:25;8.37;;;6.30;;
8803;SDS011;4438;50.890;4.726;2023-03-21T04:33:55;10.63;;;6.37;;
8803;SDS011;4438;50.890;4.726;2023-03-21T04:36:21;10.90;;;6.83;;
8803;SDS011;4438;50.890;4.726;2023-03-21T04:38:55;10.47;;;6.30;;
8803;SDS011;4438;50.890;4.726;2023-03-21T04:41:28;10.77;;;7.00;;
8803;SDS011;4438;50.890;4.726;2023-03-21T04:43:55;9.03;;;6.43;;
8803;SDS011;4438;50.890;4.726;2023-03-21T04:46:21;10.83;;;6.97;;
8803;SDS011;4438;50.890;4.726;2023-03-21T04:48:47;10.37;;;7.53;;
8803;SDS011;4438;50.890;4.726;2023-03-21T04:51:14;11.17;;;7.10;;
8803;SDS011;4438;50.890;4.726;2023-03-21T04:53:40;12.00;;;7.53;;
8803;SDS011;4438;50.890;4.726;2023-03-21T04:56:09;11.20;;;6.70;;
8803;SDS011;4438;50.890;4.726;2023-03-21T04:58:35;13.10;;;7.20;;
8803;SDS011;4438;50.890;4.726;2023-03-21T05:01:02;11.73;;;7.87;;
8803;SDS011;4438;50.890;4.726;2023-03-21T05:03:30;9.53;;;7.23;;
8803;SDS011;4438;50.890;4.726;2023-03-21T05:05:59;12.00;;;7.17;;
8803;SDS011;4438;50.890;4.726;2023-03-21T05:08:25;12.87;;;7.30;;
8803;SDS011;4438;50.890;4.726;2023-03-21T05:10:51;14.43;;;7.27;;
8803;SDS011;4438;50.890;4.726;2023-03-21T05:13:17;11.27;;;6.93;;
8803;SDS011;4438;50.890;4.726;2023-03-21T05:15:43;8.73;;;7.23;;
8803;SDS011;4438;50.890;4.726;2023-03-21T05:18:09;12.83;;;7.60;;
8803;SDS011;4438;50.890;4.726;2023-03-21T05:20:39;11.73;;;7.47;;
8803;SDS011;4438;50.890;4.726;2023-03-21T05:23:07;10.43;;;7.63;;
8803;SDS011;4438;50.890;4.726;2023-03-21T05:25:35;11.53;;;7.53;;
8803;SDS011;4438;50.890;4.726;2023-03-21T05:28:02;12.97;;;7.37;;
8803;SDS011;4438;50.890;4.726;2023-03-21T05:30:29;11.93;;;7.73;;
8803;SDS011;4438;50.890;4.726;2023-03-21T05:32:55;11.40;;;7.50;;
8803;SDS011;4438;50.890;4.726;2023-03-21T05:35:21;13.40;;;7.73;;
8803;SDS011;4438;50.890;4.726;2023-03-21T05:37:47;11.10;;;7.40;;
8803;SDS011;4438;50.890;4.726;2023-03-21T05:40:13;10.30;;;6.70;;
8803;SDS011;4438;50.890;4.726;2023-03-21T05:42:39;12.07;;;7.40;;
8803;SDS011;4438;50.890;4.726;2023-03-21T05:45:05;12.60;;;7.03;;
8803;SDS011;4438;50.890;4.726;2023-03-21T05:47:32;9.07;;;6.90;;
8803;SDS011;4438;50.890;4.726;2023-03-21T05:49:58;9.13;;;6.20;;
8803;SDS011;4438;50.890;4.726;2023-03-21T05:52:24;10.60;;;7.37;;
8803;SDS011;4438;50.890;4.726;2023-03-21T05:54:50;13.07;;;7.50;;
8803;SDS011;4438;50.890;4.726;2023-03-21T05:57:16;11.27;;;7.20;;
8803;SDS011;4438;50.890;4.726;2023-03-21T05:59:43;11.47;;;6.90;;
8803;SDS011;4438;50.890;4.726;2023-03-21T06:02:09;11.03;;;7.00;;
8803;SDS011;4438;50.890;4.726;2023-03-21T06:04:36;10.80;;;6.83;;
8803;SDS011;4438;50.890;4.726;2023-03-21T06:07:02;7.90;;;6.53;;
8803;SDS011;4438;50.890;4.726;2023-03-21T06:09:28;8.93;;;6.33;;
8803;SDS011;4438;50.890;4.726;2023-03-21T06:11:54;8.07;;;6.10;;
8803;SDS011;4438;50.890;4.726;2023-03-21T06:14:21;10.60;;;6.57;;
8803;SDS011;4438;50.890;4.726;2023-03-21T06:16:48;8.57;;;5.93;;
8803;SDS011;4438;50.890;4.726;2023-03-21T06:19:14;8.57;;;6.20;;
8803;SDS011;4438;50.890;4.726;2023-03-21T06:21:41;9.60;;;6.60;;
8803;SDS011;4438;50.890;4.726;2023-03-21T06:24:07;7.77;;;5.83;;
8803;SDS011;4438;50.890;4.726;2023-03-21T06:26:34;8.20;;;5.87;;
8803;SDS011;4438;50.890;4.726;2023-03-21T06:29:00;8.83;;;6.00;;
8803;SDS011;4438;50.890;4.726;2023-03-21T06:31:26;11.57;;;5.60;;
8803;SDS011;4438;50.890;4.726;2023-03-21T06:33:52;8.37;;;5.93;;
8803;SDS011;4438;50.890;4.726;2023-03-21T06:36:19;10.07;;;5.97;;
8803;SDS011;4438;50.890;4.726;2023-03-21T06:38:45;11.30;;;5.60;;
8803;SDS011;4438;50.890;4.726;2023-03-21T06:41:13;10.07;;;5.90;;
8803;SDS011;4438;50.890;4.726;2023-03-21T06:43:40;7.70;;;5.70;;
8803;SDS011;4438;50.890;4.726;2023-03-21T06:46:06;8.30;;;5.53;;
8803;SDS011;4438;50.890;4.726;2023-03-21T06:48:32;9.03;;;5.63;;
8803;SDS011;4438;50.890;4.726;2023-03-21T06:50:58;8.43;;;5.50;;
8803;SDS011;4438;50.890;4.726;2023-03-21T06:53:24;9.20;;;5.67;;
8803;SDS011;4438;50.890;4.726;2023-03-21T06:55:54;8.77;;;5.63;;
8803;SDS011;4438;50.890;4.726;2023-03-21T06:58:20;8.13;;;5.40;;
8803;SDS011;4438;50.890;4.726;2023-03-21T07:00:46;9.53;;;5.33;;
8803;SDS011;4438;50.890;4.726;2023-03-21T07:03:13;7.77;;;5.40;;
8803;SDS011;4438;50.890;4.726;2023-03-21T07:05:39;8.50;;;5.40;;
8803;SDS011;4438;50.890;4.726;2023-03-21T07:08:06;10.77;;;6.37;;
8803;SDS011;4438;50.890;4.726;2023-03-21T07:10:40;9.67;;;5.77;;
8803;SDS011;4438;50.890;4.726;2023-03-21T07:13:06;7.87;;;5.63;;
8803;SDS011;4438;50.890;4.726;2023-03-21T07:15:32;10.80;;;5.40;;
8803;SDS011;4438;50.890;4.726;2023-03-21T07:18:02;8.97;;;5.33;;
8803;SDS011;4438;50.890;4.726;2023-03-21T07:20:28;9.13;;;5.83;;
8803;SDS011;4438;50.890;4.726;2023-03-21T07:22:55;8.67;;;6.07;;
8803;SDS011;4438;50.890;4.726;2023-03-21T07:25:21;11.07;;;5.97;;
8803;SDS011;4438;50.890;4.726;2023-03-21T07:27:47;8.60;;;5.93;;
8803;SDS011;4438;50.890;4.726;2023-03-21T07:30:13;7.03;;;5.10;;
8803;SDS011;4438;50.890;4.726;2023-03-21T07:32:39;8.37;;;5.03;;
8803;SDS011;4438;50.890;4.726;2023-03-21T07:35:06;6.43;;;5.40;;
8803;SDS011;4438;50.890;4.726;2023-03-21T07:37:32;9.00;;;5.57;;
8803;SDS011;4438;50.890;4.726;2023-03-21T07:39:59;8.17;;;5.20;;
8803;SDS011;4438;50.890;4.726;2023-03-21T07:42:25;8.27;;;5.30;;
8803;SDS011;4438;50.890;4.726;2023-03-21T07:44:51;10.53;;;5.83;;
8803;SDS011;4438;50.890;4.726;2023-03-21T07:47:19;7.70;;;4.67;;
8803;SDS011;4438;50.890;4.726;2023-03-21T07:49:45;8.27;;;5.53;;
8803;SDS011;4438;50.890;4.726;2023-03-21T07:52:11;6.50;;;4.70;;
8803;SDS011;4438;50.890;4.726;2023-03-21T07:54:37;6.23;;;4.80;;
8803;SDS011;4438;50.890;4.726;2023-03-21T07:57:03;8.23;;;4.40;;
8803;SDS011;4438;50.890;4.726;2023-03-21T07:59:31;7.57;;;4.70;;
8803;SDS011;4438;50.890;4.726;2023-03-21T08:01:57;6.27;;;4.57;;
8803;SDS011;4438;50.890;4.726;2023-03-21T08:04:23;7.03;;;4.30;;
8803;SDS011;4438;50.890;4.726;2023-03-21T08:06:50;8.20;;;4.20;;
8803;SDS011;4438;50.890;4.726;2023-03-21T08:09:16;8.63;;;4.70;;
8803;SDS011;4438;50.890;4.726;2023-03-21T08:11:42;7.13;;;4.43;;
8803;SDS011;4438;50.890;4.726;2023-03-21T08:14:08;8.53;;;4.93;;
8803;SDS011;4438;50.890;4.726;2023-03-21T08:16:34;7.13;;;4.43;;
8803;SDS011;4438;50.890;4.726;2023-03-21T08:19:00;7.10;;;4.77;;
8803;SDS011;4438;50.890;4.726;2023-03-21T08:21:26;6.47;;;4.60;;
8803;SDS011;4438;50.890;4.726;2023-03-21T08:23:52;7.33;;;5.10;;
8803;SDS011;4438;50.890;4.726;2023-03-21T08:26:18;7.97;;;5.07;;
8803;SDS011;4438;50.890;4.726;2023-03-21T08:28:45;6.67;;;4.70;;
8803;SDS011;4438;50.890;4.726;2023-03-21T08:31:11;9.93;;;5.90;;
8803;SDS011;4438;50.890;4.726;2023-03-21T08:33:38;8.33;;;5.63;;
8803;SDS011;4438;50.890;4.726;2023-03-21T08:36:05;8.43;;;5.30;;
8803;SDS011;4438;50.890;4.726;2023-03-21T08:38:31;10.20;;;5.40;;
8803;SDS011;4438;50.890;4.726;2023-03-21T08:40:59;10.83;;;5.53;;
8803;SDS011;4438;50.890;4.726;2023-03-21T08:43:25;8.47;;;5.20;;
8803;SDS011;4438;50.890;4.726;2023-03-21T08:45:52;6.30;;;4.80;;
8803;SDS011;4438;50.890;4.726;2023-03-21T08:48:18;8.67;;;5.47;;
8803;SDS011;4438;50.890;4.726;2023-03-21T08:50:44;9.00;;;5.10;;
8803;SDS011;4438;50.890;4.726;2023-03-21T08:53:10;6.93;;;5.03;;
8803;SDS011;4438;50.890;4.726;2023-03-21T08:55:36;7.07;;;5.17;;
8803;SDS011;4438;50.890;4.726;2023-03-21T08:58:02;7.30;;;5.30;;
8803;SDS011;4438;50.890;4.726;2023-03-21T09:00:29;8.63;;;5.13;;
8803;SDS011;4438;50.890;4.726;2023-03-21T09:02:55;8.57;;;5.37;;
8803;SDS011;4438;50.890;4.726;2023-03-21T09:05:23;9.50;;;5.27;;
8803;SDS011;4438;50.890;4.726;2023-03-21T09:07:50;9.33;;;5.77;;
8803;SDS011;4438;50.890;4.726;2023-03-21T09:10:18;11.47;;;5.37;;
8803;SDS011;4438;50.890;4.726;2023-03-21T09:12:44;7.47;;;5.00;;
8803;SDS011;4438;50.890;4.726;2023-03-21T09:15:11;9.67;;;5.70;;
8803;SDS011;4438;50.890;4.726;2023-03-21T09:17:38;8.23;;;5.20;;
8803;SDS011;4438;50.890;4.726;2023-03-21T09:20:11;8.33;;;5.57;;
8803;SDS011;4438;50.890;4.726;2023-03-21T09:22:48;8.60;;;5.03;;
8803;SDS011;4438;50.890;4.726;2023-03-21T09:25:16;8.87;;;5.47;;
8803;SDS011;4438;50.890;4.726;2023-03-21T09:27:43;6.43;;;4.70;;
8803;SDS011;4438;50.890;4.726;2023-03-21T09:30:10;8.33;;;4.93;;
8803;SDS011;4438;50.890;4.726;2023-03-21T09:32:37;7.50;;;5.10;;
8803;SDS011;4438;50.890;4.726;2023-03-21T09:35:04;7.23;;;4.97;;
8803;SDS011;4438;50.890;4.726;2023-03-21T09:37:31;6.30;;;5.27;;
8803;SDS011;4438;50.890;4.726;2023-03-21T09:39:57;7.63;;;5.30;;
8803;SDS011;4438;50.890;4.726;2023-03-21T09:45:00;8.10;;;5.33;;
8803;SDS011;4438;50.890;4.726;2023-03-21T09:47:30;8.77;;;5.10;;
8803;SDS011;4438;50.890;4.726;2023-03-21T09:52:53;7.23;;;5.13;;
8803;SDS011;4438;50.890;4.726;2023-03-21T09:55:25;6.87;;;5.13;;
8803;SDS011;4438;50.890;4.726;2023-03-21T09:58:42;6.30;;;5.00;;
8803;SDS011;4438;50.890;4.726;2023-03-21T10:00:42;6.80;;;5.10;;
8803;SDS011;4438;50.890;4.726;2023-03-21T10:03:13;7.40;;;5.20;;
8803;SDS011;4438;50.890;4.726;2023-03-21T10:05:44;7.37;;;4.87;;
8803;SDS011;4438;50.890;4.726;2023-03-21T10:08:17;6.53;;;5.00;;
8803;SDS011;4438;50.890;4.726;2023-03-21T10:10:50;8.00;;;5.23;;
8803;SDS011;4438;50.890;4.726;2023-03-21T10:13:28;7.70;;;4.60;;
8803;SDS011;4438;50.890;4.726;2023-03-21T10:15:57;6.80;;;4.30;;
8803;SDS011;4438;50.890;4.726;2023-03-21T10:18:24;7.23;;;4.50;;
8803;SDS011;4438;50.890;4.726;2023-03-21T10:20:51;5.10;;;4.50;;
8803;SDS011;4438;50.890;4.726;2023-03-21T10:23:19;7.07;;;4.93;;
8803;SDS011;4438;50.890;4.726;2023-03-21T10:25:59;7.13;;;4.63;;
8803;SDS011;4438;50.890;4.726;2023-03-21T10:28:27;5.90;;;4.43;;
8803;SDS011;4438;50.890;4.726;2023-03-21T10:30:59;7.60;;;4.40;;
8803;SDS011;4438;50.890;4.726;2023-03-21T10:33:31;8.50;;;4.50;;
8803;SDS011;4438;50.890;4.726;2023-03-21T10:35:58;6.93;;;4.40;;
8803;SDS011;4438;50.890;4.726;2023-03-21T10:38:26;7.37;;;4.50;;
8803;SDS011;4438;50.890;4.726;2023-03-21T10:40:52;6.70;;;4.30;;
8803;SDS011;4438;50.890;4.726;2023-03-21T10:45:48;7.13;;;4.07;;
8803;SDS011;4438;50.890;4.726;2023-03-21T10:48:14;6.60;;;4.60;;
8803;SDS011;4438;50.890;4.726;2023-03-21T10:50:40;6.83;;;4.00;;
8803;SDS011;4438;50.890;4.726;2023-03-21T10:53:12;6.17;;;3.97;;
8803;SDS011;4438;50.890;4.726;2023-03-21T10:55:39;7.07;;;3.90;;
8803;SDS011;4438;50.890;4.726;2023-03-21T10:58:07;6.97;;;4.33;;
8803;SDS011;4438;50.890;4.726;2023-03-21T11:00:38;6.83;;;4.20;;
8803;SDS011;4438;50.890;4.726;2023-03-21T11:03:05;7.30;;;4.07;;
8803;SDS011;4438;50.890;4.726;2023-03-21T11:05:33;5.30;;;3.90;;
8803;SDS011;4438;50.890;4.726;2023-03-21T11:08:04;6.20;;;4.03;;
8803;SDS011;4438;50.890;4.726;2023-03-21T11:10:32;7.07;;;4.07;;
8803;SDS011;4438;50.890;4.726;2023-03-21T11:13:01;7.43;;;4.27;;
8803;SDS011;4438;50.890;4.726;2023-03-21T11:15:31;4.90;;;3.83;;
8803;SDS011;4438;50.890;4.726;2023-03-21T11:17:59;6.33;;;3.97;;
8803;SDS011;4438;50.890;4.726;2023-03-21T11:20:27;7.50;;;3.90;;
8803;SDS011;4438;50.890;4.726;2023-03-21T11:22:54;5.03;;;3.77;;
8803;SDS011;4438;50.890;4.726;2023-03-21T11:25:26;4.93;;;3.17;;
8803;SDS011;4438;50.890;4.726;2023-03-21T11:27:55;6.43;;;3.57;;
8803;SDS011;4438;50.890;4.726;2023-03-21T11:30:22;6.50;;;3.60;;
8803;SDS011;4438;50.890;4.726;2023-03-21T11:32:50;7.53;;;4.00;;
8803;SDS011;4438;50.890;4.726;2023-03-21T11:35:33;6.30;;;3.93;;
8803;SDS011;4438;50.890;4.726;2023-03-21T11:38:00;5.63;;;3.90;;
8803;SDS011;4438;50.890;4.726;2023-03-21T11:40:30;5.93;;;4.10;;
8803;SDS011;4438;50.890;4.726;2023-03-21T11:43:01;5.93;;;4.00;;
8803;SDS011;4438;50.890;4.726;2023-03-21T11:45:29;6.17;;;3.90;;
8803;SDS011;4438;50.890;4.726;2023-03-21T11:47:56;5.67;;;3.80;;
8803;SDS011;4438;50.890;4.726;2023-03-21T11:50:26;7.87;;;4.23;;
8803;SDS011;4438;50.890;4.726;2023-03-21T12:00:53;5.93;;;4.13;;
8803;SDS011;4438;50.890;4.726;2023-03-21T12:03:29;5.00;;;3.67;;
8803;SDS011;4438;50.890;4.726;2023-03-21T12:06:01;5.63;;;4.17;;
8803;SDS011;4438;50.890;4.726;2023-03-21T12:13:30;5.77;;;3.90;;
8803;SDS011;4438;50.890;4.726;2023-03-21T12:16:23;6.30;;;4.33;;
8803;SDS011;4438;50.890;4.726;2023-03-21T12:21:19;5.63;;;3.93;;
8803;SDS011;4438;50.890;4.726;2023-03-21T12:26:21;4.10;;;3.67;;
8803;SDS011;4438;50.890;4.726;2023-03-21T12:28:58;6.77;;;4.20;;
8803;SDS011;4438;50.890;4.726;2023-03-21T12:44:18;6.73;;;5.80;;
8803;SDS011;4438;50.890;4.726;2023-03-21T12:46:50;9.13;;;6.77;;
8803;SDS011;4438;50.890;4.726;2023-03-21T12:52:01;8.33;;;6.33;;
8803;SDS011;4438;50.890;4.726;2023-03-21T12:54:42;9.17;;;6.10;;
8803;SDS011;4438;50.890;4.726;2023-03-21T12:57:11;5.87;;;5.27;;
8803;SDS011;4438;50.890;4.726;2023-03-21T12:59:44;8.93;;;5.37;;
8803;SDS011;4438;50.890;4.726;2023-03-21T13:02:16;5.93;;;4.90;;
8803;SDS011;4438;50.890;4.726;2023-03-21T13:07:29;5.37;;;4.00;;
8803;SDS011;4438;50.890;4.726;2023-03-21T13:09:56;7.03;;;4.07;;
8803;SDS011;4438;50.890;4.726;2023-03-21T13:12:25;5.20;;;4.60;;
8803;SDS011;4438;50.890;4.726;2023-03-21T13:15:13;5.63;;;4.67;;
8803;SDS011;4438;50.890;4.726;2023-03-21T13:17:45;7.20;;;4.43;;
8803;SDS011;4438;50.890;4.726;2023-03-21T13:20:34;7.67;;;4.67;;
8803;SDS011;4438;50.890;4.726;2023-03-21T13:23:02;5.13;;;4.60;;
8803;SDS011;4438;50.890;4.726;2023-03-21T13:25:30;6.47;;;4.50;;
8803;SDS011;4438;50.890;4.726;2023-03-21T13:28:00;6.07;;;4.60;;
8803;SDS011;4438;50.890;4.726;2023-03-21T13:30:27;5.57;;;4.20;;
8803;SDS011;4438;50.890;4.726;2023-03-21T13:33:01;6.40;;;4.20;;
8803;SDS011;4438;50.890;4.726;2023-03-21T13:35:33;5.57;;;3.87;;
8803;SDS011;4438;50.890;4.726;2023-03-21T13:38:13;5.43;;;4.43;;
8803;SDS011;4438;50.890;4.726;2023-03-21T13:40:50;6.87;;;4.00;;
8803;SDS011;4438;50.890;4.726;2023-03-21T13:43:33;6.03;;;3.90;;
8803;SDS011;4438;50.890;4.726;2023-03-21T13:46:07;8.33;;;4.13;;
8803;SDS011;4438;50.890;4.726;2023-03-21T13:48:41;4.60;;;4.00;;
8803;SDS011;4438;50.890;4.726;2023-03-21T13:51:08;8.17;;;4.10;;
8803;SDS011;4438;50.890;4.726;2023-03-21T13:53:41;4.87;;;3.90;;
8803;SDS011;4438;50.890;4.726;2023-03-21T14:03:45;4.77;;;4.10;;
8803;SDS011;4438;50.890;4.726;2023-03-21T14:06:11;4.27;;;3.60;;
8803;SDS011;4438;50.890;4.726;2023-03-21T14:08:38;6.03;;;3.87;;
8803;SDS011;4438;50.890;4.726;2023-03-21T14:11:06;4.33;;;3.70;;
8803;SDS011;4438;50.890;4.726;2023-03-21T14:13:34;4.77;;;4.37;;
8803;SDS011;4438;50.890;4.726;2023-03-21T14:16:04;4.83;;;3.80;;
8803;SDS011;4438;50.890;4.726;2023-03-21T14:18:38;5.03;;;4.07;;
8803;SDS011;4438;50.890;4.726;2023-03-21T14:21:04;5.30;;;4.00;;
8803;SDS011;4438;50.890;4.726;2023-03-21T14:23:31;5.97;;;4.23;;
8803;SDS011;4438;50.890;4.726;2023-03-21T14:25:57;6.10;;;4.80;;
8803;SDS011;4438;50.890;4.726;2023-03-21T14:28:24;6.20;;;4.70;;
8803;SDS011;4438;50.890;4.726;2023-03-21T14:30:56;7.10;;;4.60;;
8803;SDS011;4438;50.890;4.726;2023-03-21T14:33:31;5.17;;;4.30;;
8803;SDS011;4438;50.890;4.726;2023-03-21T14:35:58;6.73;;;4.13;;
8803;SDS011;4438;50.890;4.726;2023-03-21T14:38:26;6.27;;;4.50;;
8803;SDS011;4438;50.890;4.726;2023-03-21T14:40:57;5.87;;;4.60;;
8803;SDS011;4438;50.890;4.726;2023-03-21T14:43:24;6.90;;;4.63;;
8803;SDS011;4438;50.890;4.726;2023-03-21T14:45:51;5.63;;;4.60;;
8803;SDS011;4438;50.890;4.726;2023-03-21T14:48:18;5.77;;;4.53;;
8803;SDS011;4438;50.890;4.726;2023-03-21T14:50:48;5.40;;;4.53;;
8803;SDS011;4438;50.890;4.726;2023-03-21T14:55:43;5.13;;;4.63;;
8803;SDS011;4438;50.890;4.726;2023-03-21T14:58:11;5.67;;;4.87;;
8803;SDS011;4438;50.890;4.726;2023-03-21T15:00:37;7.50;;;5.40;;
8803;SDS011;4438;50.890;4.726;2023-03-21T15:03:03;5.77;;;5.17;;
8803;SDS011;4438;50.890;4.726;2023-03-21T15:05:30;5.73;;;5.07;;
8803;SDS011;4438;50.890;4.726;2023-03-21T15:07:58;6.23;;;5.17;;
8803;SDS011;4438;50.890;4.726;2023-03-21T15:10:25;5.93;;;5.37;;
8803;SDS011;4438;50.890;4.726;2023-03-21T15:12:53;11.57;;;6.40;;
8803;SDS011;4438;50.890;4.726;2023-03-21T15:15:20;7.13;;;6.43;;
8803;SDS011;4438;50.890;4.726;2023-03-21T15:17:47;7.83;;;6.70;;
8803;SDS011;4438;50.890;4.726;2023-03-21T15:20:14;7.20;;;6.50;;
8803;SDS011;4438;50.890;4.726;2023-03-21T15:22:43;7.97;;;6.50;;
8803;SDS011;4438;50.890;4.726;2023-03-21T15:25:12;9.77;;;7.27;;
8803;SDS011;4438;50.890;4.726;2023-03-21T15:27:40;9.33;;;8.13;;
8803;SDS011;4438;50.890;4.726;2023-03-21T15:30:15;9.60;;;8.33;;
8803;SDS011;4438;50.890;4.726;2023-03-21T15:32:43;10.50;;;8.03;;
8803;SDS011;4438;50.890;4.726;2023-03-21T15:35:13;9.50;;;7.77;;
8803;SDS011;4438;50.890;4.726;2023-03-21T15:37:40;10.10;;;8.30;;
8803;SDS011;4438;50.890;4.726;2023-03-21T15:40:26;9.17;;;8.23;;
8803;SDS011;4438;50.890;4.726;2023-03-21T15:43:03;9.87;;;8.10;;
8803;SDS011;4438;50.890;4.726;2023-03-21T15:45:31;8.87;;;7.70;;
8803;SDS011;4438;50.890;4.726;2023-03-21T15:48:01;9.50;;;8.33;;
8803;SDS011;4438;50.890;4.726;2023-03-21T15:50:31;8.77;;;7.93;;
8803;SDS011;4438;50.890;4.726;2023-03-21T15:52:59;8.43;;;7.63;;
8803;SDS011;4438;50.890;4.726;2023-03-21T15:55:27;7.97;;;7.10;;
8803;SDS011;4438;50.890;4.726;2023-03-21T15:57:58;8.63;;;7.07;;
8803;SDS011;4438;50.890;4.726;2023-03-21T16:03:02;8.77;;;6.53;;
8803;SDS011;4438;50.890;4.726;2023-03-21T16:05:31;8.10;;;7.30;;
8803;SDS011;4438;50.890;4.726;2023-03-21T16:10:37;8.93;;;8.03;;
8803;SDS011;4438;50.890;4.726;2023-03-21T16:13:03;8.27;;;7.37;;
8803;SDS011;4438;50.890;4.726;2023-03-21T16:15:31;10.57;;;8.20;;
8803;SDS011;4438;50.890;4.726;2023-03-21T16:17:59;9.30;;;8.10;;
8803;SDS011;4438;50.890;4.726;2023-03-21T16:20:31;10.30;;;9.20;;
8803;SDS011;4438;50.890;4.726;2023-03-21T16:22:58;10.03;;;7.87;;
8803;SDS011;4438;50.890;4.726;2023-03-21T16:25:25;9.33;;;8.33;;
8803;SDS011;4438;50.890;4.726;2023-03-21T16:27:51;10.53;;;9.43;;
8803;SDS011;4438;50.890;4.726;2023-03-21T16:30:18;9.53;;;8.37;;
8803;SDS011;4438;50.890;4.726;2023-03-21T16:32:45;9.90;;;8.17;;
8803;SDS011;4438;50.890;4.726;2023-03-21T16:35:11;12.83;;;8.90;;
8803;SDS011;4438;50.890;4.726;2023-03-21T16:37:38;9.70;;;8.73;;
8803;SDS011;4438;50.890;4.726;2023-03-21T16:40:21;9.70;;;8.70;;
8803;SDS011;4438;50.890;4.726;2023-03-21T16:42:50;9.20;;;8.10;;
8803;SDS011;4438;50.890;4.726;2023-03-21T16:45:16;9.80;;;8.60;;
8803;SDS011;4438;50.890;4.726;2023-03-21T16:47:42;9.87;;;8.63;;
8803;SDS011;4438;50.890;4.726;2023-03-21T16:52:55;9.67;;;8.67;;
8803;SDS011;4438;50.890;4.726;2023-03-21T16:55:22;10.30;;;8.17;;
8803;SDS011;4438;50.890;4.726;2023-03-21T16:57:49;10.33;;;7.90;;
8803;SDS011;4438;50.890;4.726;2023-03-21T17:00:17;9.10;;;8.07;;